createdAt,value
2022-12-09T00:00:27.199Z,10.83
2022-12-09T00:02:00.342Z,10.90
2022-12-09T00:03:33.872Z,10.70
2022-12-09T00:05:07.814Z,10.80
2022-12-09T00:06:41.058Z,10.47
2022-12-09T00:08:14.321Z,11.20
2022-12-09T00:09:47.782Z,10.87
2022-12-09T00:11:22.693Z,9.80
2022-12-09T00:12:57.657Z,9.73
2022-12-09T00:14:30.904Z,10.10
2022-12-09T00:16:07.603Z,11.10
2022-12-09T00:17:40.916Z,10.83
2022-12-09T00:19:14.436Z,10.60
2022-12-09T00:20:47.461Z,10.67
2022-12-09T00:22:20.597Z,10.17
2022-12-09T00:23:55.767Z,9.87
2022-12-09T00:25:29.144Z,11.13
2022-12-09T00:27:02.251Z,10.87
2022-12-09T00:28:36.793Z,10.63
2022-12-09T00:30:11.308Z,11.13
2022-12-09T00:31:45.128Z,10.97
2022-12-09T00:33:18.556Z,12.00
2022-12-09T00:34:51.788Z,11.37
2022-12-09T00:36:25.802Z,10.70
2022-12-09T00:37:59.076Z,11.40
2022-12-09T00:39:32.187Z,10.50
2022-12-09T00:41:06.102Z,11.03
2022-12-09T00:42:39.256Z,11.17
2022-12-09T00:44:13.940Z,11.13
2022-12-09T00:45:46.347Z,11.00
2022-12-09T00:47:20.935Z,10.70
2022-12-09T00:48:54.339Z,11.53
2022-12-09T00:50:27.796Z,10.97
2022-12-09T00:52:01.079Z,10.90
2022-12-09T00:53:34.678Z,11.57
2022-12-09T00:55:08.290Z,12.30
2022-12-09T00:56:41.458Z,10.73
2022-12-09T00:58:15.030Z,11.13
2022-12-09T00:59:49.516Z,11.47
2022-12-09T01:01:22.662Z,11.00
2022-12-09T01:02:56.092Z,11.00
2022-12-09T01:04:29.765Z,11.53
2022-12-09T01:06:08.271Z,11.23
2022-12-09T01:07:41.388Z,11.23
2022-12-09T01:09:14.772Z,10.90
2022-12-09T01:10:47.494Z,10.57
2022-12-09T01:12:20.621Z,10.83
2022-12-09T01:13:54.677Z,10.40
2022-12-09T01:15:29.206Z,10.87
2022-12-09T01:17:02.599Z,11.47
2022-12-09T01:18:35.728Z,10.70
2022-12-09T01:20:11.206Z,10.33
2022-12-09T01:21:44.969Z,10.70
2022-12-09T01:23:18.039Z,11.27
2022-12-09T01:24:51.862Z,11.03
2022-12-09T01:26:25.287Z,11.77
2022-12-09T01:27:58.728Z,11.53
2022-12-09T01:29:31.806Z,11.30
2022-12-09T01:31:12.169Z,12.43
2022-12-09T01:32:46.995Z,10.90
2022-12-09T01:34:20.302Z,11.60
2022-12-09T01:35:53.678Z,11.57
2022-12-09T01:37:27.079Z,11.40
2022-12-09T01:39:01.396Z,10.57
2022-12-09T01:40:34.744Z,11.03
2022-12-09T01:42:08.065Z,11.00
2022-12-09T01:43:42.143Z,11.50
2022-12-09T01:45:38.920Z,11.20
2022-12-09T01:47:23.120Z,11.10
2022-12-09T01:48:55.384Z,11.57
2022-12-09T01:50:29.394Z,10.10
2022-12-09T01:52:08.729Z,10.13
2022-12-09T01:53:44.605Z,10.67
2022-12-09T01:55:19.220Z,11.13
2022-12-09T01:56:53.134Z,11.40
2022-12-09T01:58:26.642Z,11.17
2022-12-09T02:00:00.157Z,11.40
2022-12-09T02:01:33.628Z,12.00
2022-12-09T02:03:09.134Z,10.83
2022-12-09T02:04:46.106Z,10.90
2022-12-09T02:06:19.110Z,11.03
2022-12-09T02:07:52.841Z,10.87
2022-12-09T02:09:26.447Z,10.90
2022-12-09T02:11:11.254Z,10.80
2022-12-09T02:12:58.112Z,10.37
2022-12-09T02:14:36.808Z,10.50
2022-12-09T02:16:13.747Z,11.30
2022-12-09T02:17:52.492Z,11.00
2022-12-09T02:19:46.347Z,9.87
2022-12-09T02:21:26.637Z,10.33
2022-12-09T02:23:08.726Z,9.73
2022-12-09T02:24:46.459Z,10.33
2022-12-09T02:26:25.959Z,10.23
2022-12-09T02:28:17.127Z,9.40
2022-12-09T02:30:06.987Z,9.07
2022-12-09T02:32:08.953Z,9.40
2022-12-09T02:33:58.222Z,8.67
2022-12-09T02:35:38.458Z,9.33
2022-12-09T02:37:17.743Z,8.93
2022-12-09T02:38:55.733Z,9.10
2022-12-09T02:40:35.508Z,9.37
2022-12-09T02:42:10.869Z,9.90
2022-12-09T02:43:50.380Z,9.50
2022-12-09T02:45:32.262Z,9.13
2022-12-09T02:47:10.986Z,9.30
2022-12-09T02:48:49.760Z,9.33
2022-12-09T02:50:27.305Z,9.30
2022-12-09T02:52:00.845Z,8.70
2022-12-09T02:53:35.767Z,8.57
2022-12-09T02:55:12.280Z,9.37
2022-12-09T02:56:52.894Z,9.03
2022-12-09T02:58:26.654Z,9.63
2022-12-09T02:59:58.934Z,8.80
2022-12-09T03:01:39.307Z,9.20
2022-12-09T03:03:15.889Z,9.67
2022-12-09T03:04:58.438Z,9.43
2022-12-09T03:06:41.479Z,9.30
2022-12-09T03:08:23.939Z,9.13
2022-12-09T03:10:04.946Z,9.80
2022-12-09T03:11:40.675Z,9.73
2022-12-09T03:13:19.531Z,9.77
2022-12-09T03:14:54.042Z,9.53
2022-12-09T03:16:34.143Z,10.77
2022-12-09T03:18:10.860Z,9.93
2022-12-09T03:19:48.400Z,9.90
2022-12-09T03:21:25.365Z,9.27
2022-12-09T03:23:02.729Z,9.27
2022-12-09T03:24:40.273Z,8.87
2022-12-09T03:26:16.279Z,9.57
2022-12-09T03:27:52.946Z,8.70
2022-12-09T03:29:28.144Z,10.10
2022-12-09T03:31:05.201Z,9.80
2022-12-09T03:32:40.370Z,9.63
2022-12-09T03:34:18.339Z,9.80
2022-12-09T03:35:54.171Z,8.87
2022-12-09T03:37:28.691Z,9.37
2022-12-09T03:39:04.216Z,9.73
2022-12-09T03:40:37.190Z,9.77
2022-12-09T03:42:17.094Z,9.50
2022-12-09T03:43:53.650Z,9.13
2022-12-09T03:45:27.683Z,10.43
2022-12-09T03:47:01.115Z,10.57
2022-12-09T03:48:34.618Z,9.87
2022-12-09T03:50:10.345Z,9.23
2022-12-09T03:51:47.482Z,9.90
2022-12-09T03:53:26.826Z,9.63
2022-12-09T03:55:06.789Z,9.83
2022-12-09T03:56:42.358Z,9.27
2022-12-09T03:58:17.358Z,9.57
2022-12-09T03:59:54.734Z,9.43
2022-12-09T04:01:29.700Z,8.47
2022-12-09T04:03:03.040Z,9.47
2022-12-09T04:04:40.180Z,9.47
2022-12-09T04:06:12.549Z,9.40
2022-12-09T04:07:45.683Z,9.63
2022-12-09T04:09:18.033Z,9.63
2022-12-09T04:10:52.718Z,9.77
2022-12-09T04:12:25.981Z,9.83
2022-12-09T04:13:59.055Z,10.17
2022-12-09T04:15:32.195Z,9.33
2022-12-09T04:17:05.649Z,9.23
2022-12-09T04:18:38.142Z,9.87
2022-12-09T04:20:13.199Z,9.00
2022-12-09T04:21:48.405Z,9.13
2022-12-09T04:23:21.617Z,9.60
2022-12-09T04:24:54.838Z,10.13
2022-12-09T04:26:29.269Z,10.40
2022-12-09T04:28:02.924Z,10.53
2022-12-09T04:29:36.033Z,10.70
2022-12-09T04:31:12.826Z,10.23
2022-12-09T04:32:46.197Z,10.47
2022-12-09T04:34:19.814Z,10.73
2022-12-09T04:35:52.911Z,11.47
2022-12-09T04:37:25.960Z,10.93
2022-12-09T04:38:59.318Z,10.97
2022-12-09T04:40:34.207Z,10.87
2022-12-09T04:42:08.849Z,11.17
2022-12-09T04:43:42.629Z,10.37
2022-12-09T04:45:15.988Z,11.30
2022-12-09T04:46:49.232Z,10.53
2022-12-09T04:48:21.804Z,10.23
2022-12-09T04:49:55.007Z,11.67
2022-12-09T04:51:29.021Z,10.73
2022-12-09T04:53:04.499Z,10.27
2022-12-09T04:54:37.923Z,10.60
2022-12-09T04:56:15.939Z,12.20
2022-12-09T04:57:50.654Z,12.57
2022-12-09T04:59:23.810Z,11.57
2022-12-09T05:00:57.468Z,11.90
2022-12-09T05:02:30.111Z,11.47
2022-12-09T05:04:04.250Z,12.03
2022-12-09T05:05:41.101Z,12.60
2022-12-09T05:07:14.696Z,12.33
2022-12-09T05:08:49.122Z,12.33
2022-12-09T05:10:22.334Z,13.00
2022-12-09T05:11:58.135Z,12.90
2022-12-09T05:13:33.701Z,12.40
2022-12-09T05:15:07.806Z,11.80
2022-12-09T05:16:41.362Z,11.93
2022-12-09T05:18:14.946Z,12.17
2022-12-09T05:19:48.118Z,11.30
2022-12-09T05:21:22.577Z,12.23
2022-12-09T05:22:56.114Z,10.53
2022-12-09T05:24:29.546Z,10.50
2022-12-09T05:26:03.138Z,10.67
2022-12-09T05:27:36.626Z,10.60
2022-12-09T05:29:11.133Z,10.10
2022-12-09T05:30:43.389Z,10.43
2022-12-09T05:32:16.906Z,11.70
2022-12-09T05:33:52.415Z,10.70
2022-12-09T05:35:25.805Z,11.40
2022-12-09T05:37:00.028Z,11.70
2022-12-09T05:38:33.390Z,11.60
2022-12-09T05:40:08.278Z,11.23
2022-12-09T05:41:43.441Z,11.30
2022-12-09T05:43:16.700Z,11.60
2022-12-09T05:44:51.457Z,11.53
2022-12-09T05:46:24.981Z,11.23
2022-12-09T05:47:58.410Z,11.40
2022-12-09T05:49:32.197Z,11.07
2022-12-09T05:51:08.137Z,10.93
2022-12-09T05:52:41.485Z,11.37
2022-12-09T05:54:14.672Z,11.40
2022-12-09T05:55:48.191Z,12.23
2022-12-09T05:57:21.974Z,11.67
2022-12-09T05:58:55.755Z,12.90
2022-12-09T06:00:31.420Z,12.90
2022-12-09T06:02:09.761Z,12.77
2022-12-09T06:03:43.878Z,13.00
2022-12-09T06:05:17.346Z,14.70
2022-12-09T06:06:50.876Z,14.63
2022-12-09T06:08:24.604Z,13.83
2022-12-09T06:09:58.191Z,13.80
2022-12-09T06:11:32.665Z,14.00
2022-12-09T06:13:06.692Z,14.53
2022-12-09T06:14:39.953Z,15.33
2022-12-09T06:16:17.501Z,14.93
2022-12-09T06:17:51.180Z,15.83
2022-12-09T06:19:24.718Z,15.03
2022-12-09T06:20:57.988Z,15.13
2022-12-09T06:22:31.042Z,15.17
2022-12-09T06:24:06.257Z,15.47
2022-12-09T06:25:44.086Z,14.90
2022-12-09T06:27:17.781Z,15.30
2022-12-09T06:28:51.440Z,15.27
2022-12-09T06:30:24.705Z,16.00
2022-12-09T06:31:59.511Z,15.77
2022-12-09T06:35:26.107Z,14.10
2022-12-09T06:36:59.489Z,14.13
2022-12-09T06:38:32.948Z,15.17
2022-12-09T06:40:07.338Z,13.87
2022-12-09T06:41:42.387Z,13.33
2022-12-09T06:43:16.265Z,13.60
2022-12-09T06:44:49.490Z,13.77
2022-12-09T06:46:24.877Z,13.43
2022-12-09T06:48:00.189Z,14.10
2022-12-09T06:49:33.704Z,15.57
2022-12-09T06:51:07.514Z,13.73
2022-12-09T06:52:41.443Z,12.87
2022-12-09T06:54:14.753Z,12.80
2022-12-09T06:55:48.792Z,13.37
2022-12-09T06:57:22.288Z,12.53
2022-12-09T06:58:55.457Z,12.67
2022-12-09T07:00:29.198Z,11.73
2022-12-09T07:02:02.833Z,11.80
2022-12-09T07:03:37.569Z,16.67
2022-12-09T07:05:12.192Z,19.90
2022-12-09T07:06:47.130Z,20.80
2022-12-09T07:08:20.596Z,18.80
2022-12-09T07:09:54.147Z,19.10
2022-12-09T07:11:28.078Z,18.60
2022-12-09T07:13:01.730Z,19.37
2022-12-09T07:14:35.037Z,20.07
2022-12-09T07:16:08.851Z,18.87
2022-12-09T07:17:42.623Z,19.37
2022-12-09T07:19:20.037Z,19.30
2022-12-09T07:20:53.610Z,19.63
2022-12-09T07:22:27.106Z,18.33
2022-12-09T07:24:01.401Z,19.73
2022-12-09T07:25:34.921Z,18.67
2022-12-09T07:27:14.331Z,18.93
2022-12-09T07:28:51.305Z,18.90
2022-12-09T07:30:24.528Z,19.40
2022-12-09T07:31:57.897Z,19.13
2022-12-09T07:33:31.909Z,18.70
2022-12-09T07:35:08.281Z,19.20
2022-12-09T07:36:42.006Z,18.83
2022-12-09T07:38:15.253Z,18.77
2022-12-09T07:39:48.493Z,18.93
2022-12-09T07:41:21.768Z,18.87
2022-12-09T07:42:59.314Z,19.43
2022-12-09T07:44:33.130Z,18.60
2022-12-09T07:46:07.734Z,19.23
2022-12-09T07:47:41.021Z,19.37
2022-12-09T07:49:15.197Z,19.53
2022-12-09T07:50:49.767Z,19.23
2022-12-09T07:52:23.578Z,20.30
2022-12-09T07:53:57.900Z,19.53
2022-12-09T07:55:31.877Z,19.53
2022-12-09T07:57:05.119Z,18.70
2022-12-09T07:58:39.628Z,18.80
2022-12-09T08:00:14.732Z,18.57
2022-12-09T08:01:48.639Z,18.63
2022-12-09T08:03:22.325Z,18.83
2022-12-09T08:04:56.002Z,20.23
2022-12-09T08:06:32.197Z,19.27
2022-12-09T08:08:06.214Z,18.47
2022-12-09T08:09:39.688Z,18.93
2022-12-09T08:11:15.491Z,19.13
2022-12-09T08:12:48.775Z,19.40
2022-12-09T08:14:22.185Z,19.23
2022-12-09T08:15:55.826Z,18.80
2022-12-09T08:17:30.635Z,19.63
2022-12-09T08:19:04.533Z,18.17
2022-12-09T08:20:39.841Z,19.40
2022-12-09T08:22:14.719Z,19.40
2022-12-09T08:23:48.714Z,20.17
2022-12-09T08:25:22.370Z,20.07
2022-12-09T08:26:55.845Z,19.67
2022-12-09T08:28:30.691Z,19.03
2022-12-09T08:30:05.437Z,18.23
2022-12-09T08:31:41.929Z,18.17
2022-12-09T08:33:15.793Z,18.27
2022-12-09T08:34:49.135Z,18.00
2022-12-09T08:36:24.194Z,17.30
2022-12-09T08:37:58.970Z,16.20
2022-12-09T08:39:32.406Z,16.87
2022-12-09T08:41:11.235Z,15.53
2022-12-09T08:42:44.570Z,16.03
2022-12-09T08:44:20.282Z,16.03
2022-12-09T08:45:53.941Z,13.87
2022-12-09T08:47:27.857Z,13.90
2022-12-09T08:49:02.031Z,14.73
2022-12-09T08:50:35.667Z,13.57
2022-12-09T08:52:09.526Z,13.80
2022-12-09T08:53:44.323Z,13.37
2022-12-09T08:55:17.640Z,12.90
2022-12-09T08:56:53.647Z,14.43
2022-12-09T08:58:27.180Z,14.30
2022-12-09T09:00:00.539Z,13.57
2022-12-09T09:01:35.897Z,14.90
2022-12-09T09:03:10.740Z,14.93
2022-12-09T09:04:44.565Z,15.93
2022-12-09T09:06:19.191Z,17.37
2022-12-09T09:07:52.676Z,16.93
2022-12-09T09:09:27.932Z,17.07
2022-12-09T09:11:01.843Z,16.93
2022-12-09T09:12:42.014Z,17.60
2022-12-09T09:14:16.872Z,17.57
2022-12-09T09:15:50.474Z,17.40
2022-12-09T09:17:24.730Z,17.63
2022-12-09T09:18:58.343Z,18.03
2022-12-09T09:20:31.682Z,17.53
2022-12-09T09:22:04.981Z,18.73
2022-12-09T09:23:38.757Z,18.17
2022-12-09T09:25:13.909Z,17.97
2022-12-09T09:26:48.526Z,17.87
2022-12-09T09:28:26.004Z,17.37
2022-12-09T09:30:02.367Z,18.13
2022-12-09T09:31:35.837Z,17.93
2022-12-09T09:33:09.837Z,17.87
2022-12-09T09:34:45.943Z,17.93
2022-12-09T09:36:22.577Z,18.67
2022-12-09T09:37:56.162Z,18.23
2022-12-09T09:39:29.431Z,18.00
2022-12-09T09:41:18.053Z,17.90
2022-12-09T09:42:53.543Z,19.10
2022-12-09T09:44:32.583Z,18.97
2022-12-09T09:46:07.147Z,18.77
2022-12-09T09:47:46.259Z,19.77
2022-12-09T09:49:23.959Z,19.77
2022-12-09T09:51:03.724Z,19.40
2022-12-09T09:52:42.796Z,18.50
2022-12-09T09:54:17.454Z,18.87
2022-12-09T09:55:57.668Z,18.93
2022-12-09T09:57:39.150Z,19.87
2022-12-09T09:59:22.167Z,19.10
2022-12-09T10:01:03.317Z,18.57
2022-12-09T10:02:50.415Z,19.03
2022-12-09T10:04:35.630Z,17.90
2022-12-09T10:06:18.613Z,18.83
2022-12-09T10:07:56.396Z,18.80
2022-12-09T10:09:40.402Z,19.07
2022-12-09T10:11:20.025Z,18.50
2022-12-09T10:13:17.892Z,18.20
2022-12-09T10:14:58.092Z,16.80
2022-12-09T10:16:42.772Z,17.00
2022-12-09T10:18:21.930Z,16.70
2022-12-09T10:20:00.041Z,17.87
2022-12-09T10:21:34.740Z,17.10
2022-12-09T10:23:13.721Z,17.43
2022-12-09T10:24:50.263Z,16.90
2022-12-09T10:26:27.458Z,16.87
2022-12-09T10:28:08.169Z,17.80
2022-12-09T10:29:51.412Z,15.27
2022-12-09T10:31:25.917Z,16.07
2022-12-09T10:32:59.713Z,15.37
2022-12-09T10:34:33.056Z,15.13
2022-12-09T10:36:07.773Z,15.07
2022-12-09T10:37:41.050Z,15.80
2022-12-09T10:39:16.656Z,15.63
2022-12-09T10:41:00.561Z,15.97
2022-12-09T10:43:03.615Z,15.53
2022-12-09T10:44:38.912Z,15.60
2022-12-09T10:46:19.209Z,14.33
2022-12-09T10:47:53.943Z,14.40
2022-12-09T10:49:27.360Z,14.77
2022-12-09T10:51:04.251Z,13.90
2022-12-09T10:52:45.372Z,14.37
2022-12-09T10:54:35.160Z,14.83
2022-12-09T10:56:09.250Z,13.77
2022-12-09T10:57:42.663Z,14.30
2022-12-09T10:59:21.032Z,14.17
2022-12-09T11:01:09.586Z,14.80
2022-12-09T11:02:52.231Z,14.67
2022-12-09T11:04:27.660Z,14.67
2022-12-09T11:06:05.747Z,14.63
2022-12-09T11:07:40.044Z,14.87
2022-12-09T11:09:24.258Z,14.07
2022-12-09T11:10:57.968Z,14.87
2022-12-09T11:12:40.153Z,14.40
2022-12-09T11:14:24.083Z,14.97
2022-12-09T11:16:01.431Z,15.03
2022-12-09T11:17:39.135Z,15.87
2022-12-09T11:19:15.300Z,16.63
2022-12-09T11:20:57.895Z,16.53
2022-12-09T11:22:36.414Z,16.87
2022-12-09T11:24:22.130Z,16.77
2022-12-09T11:25:59.400Z,16.73
2022-12-09T11:27:35.482Z,16.73
2022-12-09T11:29:18.624Z,18.10
2022-12-09T11:33:08.079Z,17.27
2022-12-09T11:34:47.817Z,17.17
2022-12-09T11:36:24.966Z,17.70
2022-12-09T11:38:15.909Z,17.50
2022-12-09T11:39:51.175Z,17.03
2022-12-09T11:41:45.241Z,17.97
2022-12-09T11:43:18.425Z,18.07
2022-12-09T11:44:58.809Z,17.57
2022-12-09T11:46:33.368Z,17.83
2022-12-09T11:48:27.933Z,15.53
2022-12-09T11:50:16.281Z,16.93
2022-12-09T11:52:02.539Z,17.33
2022-12-09T11:53:41.031Z,16.97
2022-12-09T11:55:20.313Z,17.27
2022-12-09T11:56:55.078Z,18.57
2022-12-09T11:58:31.954Z,17.90
2022-12-09T12:00:15.389Z,18.03
2022-12-09T12:01:54.863Z,18.47
2022-12-09T12:03:37.769Z,18.70
2022-12-09T12:05:21.817Z,18.20
2022-12-09T12:07:00.518Z,18.03
2022-12-09T12:08:38.651Z,16.60
2022-12-09T12:10:19.742Z,17.13
2022-12-09T12:12:14.608Z,16.93
2022-12-09T12:13:49.505Z,16.70
2022-12-09T12:15:27.537Z,15.93
2022-12-09T12:17:09.474Z,16.53
2022-12-09T12:18:48.803Z,18.13
2022-12-09T12:20:26.862Z,16.70
2022-12-09T12:22:23.643Z,16.07
2022-12-09T12:24:21.478Z,16.03
2022-12-09T12:26:03.078Z,14.60
2022-12-09T12:27:46.617Z,15.93
2022-12-09T12:29:32.783Z,15.13
2022-12-09T12:31:18.965Z,16.40
2022-12-09T12:33:52.860Z,15.30
2022-12-09T12:35:22.912Z,15.80
2022-12-09T12:37:07.763Z,14.30
2022-12-09T12:39:04.616Z,15.63
2022-12-09T12:40:43.131Z,17.20
2022-12-09T12:42:28.853Z,16.10
2022-12-09T12:44:33.027Z,17.63
2022-12-09T12:46:23.719Z,17.53
2022-12-09T12:48:07.618Z,16.77
2022-12-09T12:50:16.388Z,15.83
2022-12-09T12:52:00.330Z,15.93
2022-12-09T12:53:39.972Z,16.43
2022-12-09T12:55:22.428Z,17.27
2022-12-09T12:57:09.442Z,16.83
2022-12-09T12:59:03.051Z,17.23
2022-12-09T13:00:48.359Z,17.43
2022-12-09T13:02:34.029Z,16.43
2022-12-09T13:04:20.546Z,18.03
2022-12-09T13:05:58.581Z,18.10
2022-12-09T13:07:39.452Z,17.87
2022-12-09T13:09:18.893Z,17.20
2022-12-09T13:10:54.988Z,17.10
2022-12-09T13:12:44.469Z,18.50
2022-12-09T13:14:22.896Z,17.63
2022-12-09T13:16:00.352Z,18.20
2022-12-09T13:17:33.926Z,17.27
2022-12-09T13:19:13.752Z,18.37
2022-12-09T13:20:50.016Z,18.70
2022-12-09T13:22:31.077Z,19.27
2022-12-09T13:24:11.135Z,20.10
2022-12-09T13:25:51.772Z,18.57
2022-12-09T13:27:34.668Z,18.53
2022-12-09T13:29:18.209Z,18.33
2022-12-09T13:30:55.747Z,16.97
2022-12-09T13:32:46.779Z,17.63
2022-12-09T13:34:27.898Z,17.17
2022-12-09T13:36:06.900Z,17.73
2022-12-09T13:37:59.534Z,17.73
2022-12-09T13:39:58.884Z,17.00
2022-12-09T13:41:57.901Z,17.93
2022-12-09T13:43:33.713Z,17.17
2022-12-09T13:45:14.572Z,17.90
2022-12-09T13:46:48.125Z,18.00
2022-12-09T13:48:47.094Z,18.53
2022-12-09T13:50:27.440Z,18.10
2022-12-09T13:52:00.662Z,17.93
2022-12-09T13:53:40.082Z,18.00
2022-12-09T13:55:40.733Z,18.43
2022-12-09T13:57:21.301Z,17.83
2022-12-09T13:59:20.898Z,19.10
2022-12-09T14:01:09.678Z,18.73
2022-12-09T14:02:53.905Z,18.63
2022-12-09T14:04:29.144Z,17.67
2022-12-09T14:06:07.724Z,19.40
2022-12-09T14:07:43.638Z,18.80
2022-12-09T14:09:34.165Z,17.50
2022-12-09T14:11:40.342Z,17.57
2022-12-09T14:13:24.619Z,17.00
2022-12-09T14:14:58.829Z,15.93
2022-12-09T14:16:36.047Z,16.60
2022-12-09T14:18:32.844Z,16.17
2022-12-09T14:20:19.347Z,15.63
2022-12-09T14:22:25.715Z,17.00
2022-12-09T14:24:35.374Z,15.93
2022-12-09T14:26:09.770Z,15.77
2022-12-09T14:28:20.566Z,16.80
2022-12-09T14:29:56.297Z,15.70
2022-12-09T14:31:56.866Z,16.87
2022-12-09T14:33:32.963Z,16.07
2022-12-09T14:35:23.768Z,16.70
2022-12-09T14:37:30.889Z,15.57
2022-12-09T14:39:29.904Z,16.97
2022-12-09T14:41:19.262Z,15.97
2022-12-09T14:42:59.786Z,15.93
2022-12-09T14:44:38.048Z,16.17
2022-12-09T14:46:22.995Z,16.13
2022-12-09T14:47:57.184Z,16.17
2022-12-09T14:49:31.088Z,16.13
2022-12-09T14:51:22.977Z,16.90
2022-12-09T14:52:58.651Z,15.40
2022-12-09T14:54:34.122Z,16.20
2022-12-09T14:56:09.449Z,16.53
2022-12-09T14:57:47.567Z,15.70
2022-12-09T14:59:22.559Z,16.13
2022-12-09T15:01:02.153Z,16.90
2022-12-09T15:02:35.414Z,16.40
2022-12-09T15:04:08.764Z,17.33
2022-12-09T15:05:41.930Z,17.37
2022-12-09T15:07:16.951Z,17.30
2022-12-09T15:08:54.232Z,17.40
2022-12-09T15:10:33.821Z,17.57
2022-12-09T15:12:12.152Z,17.13
2022-12-09T15:13:47.818Z,16.63
2022-12-09T15:15:24.596Z,17.33
2022-12-09T15:16:58.866Z,17.80
2022-12-09T15:18:32.759Z,17.17
2022-12-09T15:20:07.706Z,17.03
2022-12-09T15:21:40.810Z,16.70
2022-12-09T15:23:19.995Z,17.27
2022-12-09T15:24:53.922Z,18.00
2022-12-09T15:26:29.334Z,17.90
2022-12-09T15:28:06.918Z,18.37
2022-12-09T15:29:39.983Z,19.33
2022-12-09T15:31:19.735Z,17.60
2022-12-09T15:32:52.865Z,17.83
2022-12-09T15:34:26.770Z,17.03
2022-12-09T15:36:03.018Z,18.13
2022-12-09T15:37:36.085Z,18.27
2022-12-09T15:39:13.459Z,18.53
2022-12-09T15:41:02.487Z,18.60
2022-12-09T15:42:39.525Z,19.20
2022-12-09T15:44:17.353Z,18.60
2022-12-09T15:45:50.818Z,19.63
2022-12-09T15:47:30.486Z,18.50
2022-12-09T15:49:05.172Z,19.50
2022-12-09T15:50:42.914Z,22.80
2022-12-09T15:52:20.916Z,75.07
2022-12-09T15:53:58.184Z,45.23
2022-12-09T15:55:37.730Z,34.77
2022-12-09T15:57:14.824Z,27.77
2022-12-09T15:58:51.156Z,21.63
2022-12-09T16:00:25.852Z,21.20
2022-12-09T16:02:00.436Z,22.27
2022-12-09T16:03:35.572Z,21.13
2022-12-09T16:05:11.247Z,21.37
2022-12-09T16:06:44.330Z,20.90
2022-12-09T16:08:17.542Z,22.10
2022-12-09T16:10:12.791Z,20.13
2022-12-09T16:11:48.461Z,21.37
2022-12-09T16:13:22.260Z,21.90
2022-12-09T16:14:55.691Z,21.73
2022-12-09T16:16:40.262Z,21.10
2022-12-09T16:18:18.305Z,21.67
2022-12-09T16:19:51.787Z,23.23
2022-12-09T16:21:28.742Z,22.40
2022-12-09T16:23:02.462Z,22.57
2022-12-09T16:25:06.209Z,21.17
2022-12-09T16:26:35.237Z,22.40
2022-12-09T16:28:08.402Z,23.20
2022-12-09T16:29:47.937Z,23.23
2022-12-09T16:31:22.457Z,22.73
2022-12-09T16:32:58.671Z,24.27
2022-12-09T16:34:31.884Z,23.93
2022-12-09T16:36:07.542Z,23.67
2022-12-09T16:37:42.820Z,22.97
2022-12-09T16:39:35.722Z,24.07
2022-12-09T16:41:11.814Z,23.20
2022-12-09T16:42:45.085Z,23.07
2022-12-09T16:44:20.502Z,24.33
2022-12-09T16:45:55.060Z,25.03
2022-12-09T16:47:29.144Z,27.33
2022-12-09T16:49:05.199Z,25.37
2022-12-09T16:50:43.022Z,24.10
2022-12-09T16:52:17.997Z,23.77
2022-12-09T16:53:53.482Z,24.83
2022-12-09T16:55:28.757Z,23.93
2022-12-09T16:57:01.906Z,23.70
2022-12-09T16:58:35.909Z,24.37
2022-12-09T17:00:10.802Z,24.57
2022-12-09T17:01:44.045Z,24.13
2022-12-09T17:03:23.661Z,24.57
2022-12-09T17:04:58.277Z,24.67
2022-12-09T17:06:31.583Z,24.80
2022-12-09T17:08:05.115Z,23.77
2022-12-09T17:09:38.219Z,25.23
2022-12-09T17:11:12.059Z,24.47
2022-12-09T17:12:45.549Z,25.40
2022-12-09T17:14:18.990Z,26.33
2022-12-09T17:15:52.967Z,27.00
2022-12-09T17:17:26.178Z,24.93
2022-12-09T17:18:59.338Z,24.57
2022-12-09T17:20:33.942Z,26.07
2022-12-09T17:22:07.184Z,24.70
2022-12-09T17:23:40.991Z,24.17
2022-12-09T17:25:14.676Z,24.77
2022-12-09T17:26:47.830Z,24.30
2022-12-09T17:28:22.214Z,24.33
2022-12-09T17:29:57.874Z,24.80
2022-12-09T17:31:31.512Z,24.07
2022-12-09T17:33:04.733Z,25.00
2022-12-09T17:34:37.905Z,23.80
2022-12-09T17:36:13.300Z,24.43
2022-12-09T17:37:46.727Z,25.33
2022-12-09T17:39:20.322Z,24.17
2022-12-09T17:40:53.397Z,23.50
2022-12-09T17:42:26.448Z,25.23
2022-12-09T17:44:02.093Z,23.57
2022-12-09T17:45:41.732Z,23.50
2022-12-09T17:47:15.284Z,24.73
2022-12-09T17:48:48.353Z,24.17
2022-12-09T17:50:21.487Z,24.37
2022-12-09T17:51:55.903Z,25.20
2022-12-09T17:53:28.981Z,24.27
2022-12-09T17:55:02.045Z,23.00
2022-12-09T17:56:35.637Z,23.70
2022-12-09T17:58:08.682Z,24.08
2022-12-09T17:59:41.800Z,24.60
2022-12-09T18:01:16.863Z,24.10
2022-12-09T18:02:50.213Z,25.88
2022-12-09T18:04:23.287Z,35.60
2022-12-09T18:05:59.257Z,42.90
2022-12-09T18:07:33.750Z,35.50
2022-12-09T18:09:09.069Z,26.63
2022-12-09T18:10:42.261Z,27.38
2022-12-09T18:12:15.387Z,28.75
2022-12-09T18:13:48.434Z,26.65
2022-12-09T18:15:21.541Z,26.77
2022-12-09T18:16:54.650Z,24.90
2022-12-09T18:18:29.330Z,26.85
2022-12-09T18:20:02.621Z,25.60
2022-12-09T18:21:35.710Z,23.83
2022-12-09T18:23:11.981Z,24.75
2022-12-09T18:24:45.022Z,23.60
2022-12-09T18:26:19.669Z,23.50
2022-12-09T18:27:52.718Z,23.50
2022-12-09T18:29:26.514Z,23.15
2022-12-09T18:30:59.725Z,23.90
2022-12-09T18:32:36.019Z,24.13
2022-12-09T18:34:09.422Z,23.95
2022-12-09T18:35:42.584Z,23.17
2022-12-09T18:37:15.756Z,23.37
2022-12-09T18:38:50.260Z,21.60
2022-12-09T18:40:23.389Z,23.30
2022-12-09T18:41:56.520Z,22.53
2022-12-09T18:43:30.515Z,20.63
2022-12-09T18:45:03.639Z,21.63
2022-12-09T18:46:39.175Z,21.83
2022-12-09T18:48:12.340Z,22.27
2022-12-09T18:49:45.471Z,21.10
2022-12-09T18:51:20.906Z,20.70
2022-12-09T18:52:54.036Z,21.43
2022-12-09T18:54:32.267Z,21.20
2022-12-09T18:56:05.916Z,22.73
2022-12-09T18:57:39.036Z,20.33
2022-12-09T18:59:12.296Z,21.57
2022-12-09T19:00:45.564Z,21.00
2022-12-09T19:02:18.683Z,21.00
2022-12-09T19:03:53.278Z,21.23
2022-12-09T19:05:26.754Z,19.97
2022-12-09T19:07:00.968Z,20.90
2022-12-09T19:08:34.018Z,21.40
2022-12-09T19:10:09.032Z,20.23
2022-12-09T19:11:43.824Z,20.93
2022-12-09T19:13:16.909Z,21.37
2022-12-09T19:14:49.954Z,20.17
2022-12-09T19:16:23.990Z,20.90
2022-12-09T19:17:57.150Z,23.17
2022-12-09T19:19:30.651Z,24.83
2022-12-09T19:21:13.815Z,23.73
2022-12-09T19:22:46.901Z,25.37
2022-12-09T19:24:22.343Z,24.40
2022-12-09T19:25:56.772Z,21.73
2022-12-09T19:27:29.849Z,23.83
2022-12-09T19:29:03.526Z,23.10
2022-12-09T19:30:36.592Z,22.17
2022-12-09T19:32:29.378Z,33.50
2022-12-09T19:34:04.568Z,25.03
2022-12-09T19:35:37.810Z,29.37
2022-12-09T19:37:11.187Z,23.67
2022-12-09T19:38:44.307Z,25.97
2022-12-09T19:40:18.632Z,31.60
2022-12-09T19:41:53.383Z,22.10
2022-12-09T19:43:26.425Z,21.47
2022-12-09T19:45:02.444Z,21.23
2022-12-09T19:46:38.435Z,22.90
2022-12-09T19:48:11.677Z,21.00
2022-12-09T19:49:44.878Z,22.13
2022-12-09T19:51:19.180Z,22.43
2022-12-09T19:52:52.299Z,21.73
2022-12-09T19:54:28.818Z,21.87
2022-12-09T19:56:03.426Z,21.53
2022-12-09T19:57:37.892Z,22.93
2022-12-09T19:59:11.866Z,22.00
2022-12-09T20:00:44.952Z,23.37
2022-12-09T20:02:18.015Z,24.47
2022-12-09T20:03:56.726Z,24.63
2022-12-09T20:05:29.806Z,22.57
2022-12-09T20:07:07.683Z,22.77
2022-12-09T20:08:41.470Z,21.87
2022-12-09T20:10:14.810Z,21.53
2022-12-09T20:11:47.912Z,21.47
2022-12-09T20:13:24.208Z,22.77
2022-12-09T20:15:00.407Z,22.47
2022-12-09T20:16:33.824Z,22.63
2022-12-09T20:18:07.577Z,21.67
2022-12-09T20:19:40.630Z,22.37
2022-12-09T20:21:14.755Z,22.50
2022-12-09T20:22:47.816Z,21.43
2022-12-09T20:24:20.946Z,21.07
2022-12-09T20:25:54.005Z,21.77
2022-12-09T20:27:27.107Z,21.80
2022-12-09T20:29:05.971Z,22.00
2022-12-09T20:30:38.993Z,22.43
2022-12-09T20:32:12.534Z,21.23
2022-12-09T20:33:45.657Z,21.33
2022-12-09T20:35:18.973Z,21.53
2022-12-09T20:36:52.088Z,20.83
2022-12-09T20:38:25.189Z,21.37
2022-12-09T20:39:58.244Z,21.37
2022-12-09T20:41:31.508Z,21.37
2022-12-09T20:43:04.673Z,21.73
2022-12-09T20:44:39.135Z,21.50
2022-12-09T20:46:14.227Z,21.60
2022-12-09T20:47:47.384Z,21.53
2022-12-09T20:49:26.201Z,22.50
2022-12-09T20:50:59.368Z,21.93
2022-12-09T20:52:32.427Z,22.30
2022-12-09T20:54:06.672Z,23.27
2022-12-09T20:55:39.760Z,23.03
2022-12-09T20:57:12.873Z,23.73